PAMR/MRI METAR and TAF weather

Enter ICAO airport designator
Station Type Date Time Source
PAMR METAR 2022/11/27 08:53 UTC NOAA

PAMR 270853Z 33005KT 10SM BKN070 M05/M11 A3033 RMK AO2 SLP274 T10501111 410281133 53015 $


Station Type Date Time Source
PAMR Decoded METAR 2022/11/27 08:53 UTC NOAA

ANCHORAGE MERRILL FIELD, AK, United States (PAMR) 61-13N 149-51W
Nov 27, 2022 - 03:53 AM EST / 2022.11.27 0853 UTC
Wind: from the NNW (330 degrees) at 6 MPH (5 KT):0
Visibility: 10 mile(s):0
Sky conditions: mostly cloudy
Temperature: 23.0 F (-5.0 C)
Windchill: 15 F (-9 C):1
Dew Point: 12.0 F (-11.1 C)
Relative Humidity: 62%
Pressure (altimeter): 30.33 in. Hg (1027 hPa)
Pressure tendency: 0.04 inches (1.5 hPa) higher than three hours ago
ob: PAMR 270853Z 33005KT 10SM BKN070 M05/M11 A3033 RMK AO2 SLP274 T10501111 410281133 53015
cycle: 9

Station Type Date Time Source
PAMR TAF UTC NOAA

Error!

Example: see airport list